createdAt,value
2019-04-03T00:01:59.033Z,5.93
2019-04-03T00:07:05.188Z,5.90
2019-04-03T00:12:10.477Z,5.87
2019-04-03T00:17:15.925Z,6.17
2019-04-03T00:22:21.995Z,6.30
2019-04-03T00:27:26.845Z,6.80
2019-04-03T00:32:31.341Z,6.70
2019-04-03T00:37:35.790Z,6.70
2019-04-03T00:42:40.255Z,6.47
2019-04-03T00:47:44.707Z,6.53
2019-04-03T00:52:49.160Z,6.50
2019-04-03T00:57:54.757Z,7.50
2019-04-03T01:02:59.782Z,7.40
2019-04-03T01:08:04.231Z,7.37
2019-04-03T01:13:08.678Z,7.20
2019-04-03T01:18:13.164Z,8.00
2019-04-03T01:23:17.620Z,7.90
2019-04-03T01:28:22.070Z,8.20
2019-04-03T01:33:26.641Z,7.97
2019-04-03T01:38:31.229Z,7.37
2019-04-03T01:43:35.683Z,7.83
2019-04-03T01:48:40.245Z,7.43
2019-04-03T01:53:44.757Z,7.80
2019-04-03T01:58:49.219Z,6.90
2019-04-03T02:03:53.744Z,8.20
2019-04-03T02:08:58.194Z,7.17
2019-04-03T02:14:02.659Z,6.27
2019-04-03T02:19:07.123Z,6.67
2019-04-03T02:24:11.564Z,6.80
2019-04-03T02:29:16.018Z,6.80
2019-04-03T02:34:20.469Z,6.93
2019-04-03T02:39:27.357Z,7.13
2019-04-03T02:44:31.329Z,6.87
2019-04-03T02:49:35.839Z,6.67
2019-04-03T02:54:42.489Z,7.03
2019-04-03T02:59:47.014Z,7.43
2019-04-03T03:04:54.582Z,7.23
2019-04-03T03:09:58.112Z,7.23
2019-04-03T03:15:03.157Z,7.20
2019-04-03T03:20:09.090Z,7.33
2019-04-03T03:25:13.827Z,7.67
2019-04-03T03:30:35.949Z,7.67
2019-04-03T03:35:31.154Z,7.30
2019-04-03T03:40:32.932Z,8.07
2019-04-03T03:45:37.992Z,7.53
2019-04-03T03:50:43.323Z,8.10
2019-04-03T03:55:48.822Z,7.73
2019-04-03T04:00:58.249Z,8.07
2019-04-03T04:06:00.293Z,8.40
2019-04-03T04:11:05.321Z,9.10
2019-04-03T04:16:09.942Z,8.37
2019-04-03T04:21:14.421Z,7.40
2019-04-03T04:26:19.298Z,8.10
2019-04-03T04:31:23.946Z,8.13
2019-04-03T04:36:28.392Z,7.60
2019-04-03T04:41:33.171Z,7.60
2019-04-03T04:46:37.579Z,7.80
2019-04-03T04:51:43.197Z,7.40
2019-04-03T04:56:47.644Z,7.90
2019-04-03T05:01:52.106Z,7.43
2019-04-03T05:06:59.683Z,7.77
2019-04-03T05:12:02.749Z,7.80
2019-04-03T05:17:07.305Z,8.47
2019-04-03T05:22:12.072Z,7.97
2019-04-03T05:27:16.614Z,9.33
2019-04-03T05:32:21.057Z,8.87
2019-04-03T05:37:25.784Z,8.80
2019-04-03T05:42:30.256Z,8.43
2019-04-03T05:47:35.106Z,9.20
2019-04-03T05:52:39.653Z,9.00
2019-04-03T05:57:45.972Z,9.50
2019-04-03T06:02:52.575Z,8.90
2019-04-03T06:07:56.761Z,9.53
2019-04-03T06:13:01.207Z,9.10
2019-04-03T06:18:05.816Z,9.73
2019-04-03T06:23:10.276Z,10.40
2019-04-03T06:28:14.765Z,9.67
2019-04-03T06:33:19.484Z,9.37
2019-04-03T06:38:24.870Z,10.10
2019-04-03T06:43:30.657Z,11.07
2019-04-03T06:48:36.518Z,9.37
2019-04-03T06:53:41.458Z,11.53
2019-04-03T06:58:45.975Z,10.80
2019-04-03T07:03:50.639Z,10.60
2019-04-03T07:08:55.097Z,12.50
2019-04-03T07:13:59.569Z,14.83
2019-04-03T07:19:04.022Z,11.23
2019-04-03T07:24:08.720Z,12.17
2019-04-03T07:29:16.309Z,40.00
2019-04-03T07:34:19.543Z,11.63
2019-04-03T07:39:23.967Z,17.77
2019-04-03T07:44:29.803Z,12.77
2019-04-03T07:49:34.806Z,11.97
2019-04-03T07:54:39.360Z,11.60
2019-04-03T07:59:43.905Z,11.77
2019-04-03T08:04:48.342Z,12.67
2019-04-03T08:09:52.795Z,13.87
2019-04-03T08:14:57.244Z,14.93
2019-04-03T08:20:01.711Z,12.30
2019-04-03T08:25:11.032Z,11.57
2019-04-03T08:30:14.935Z,12.43
2019-04-03T08:35:23.157Z,12.28
2019-04-03T08:40:26.050Z,12.58
2019-04-03T08:45:30.749Z,13.40
2019-04-03T08:50:35.308Z,12.03
2019-04-03T08:55:39.782Z,12.85
2019-04-03T09:00:44.256Z,13.05
2019-04-03T09:05:51.041Z,13.03
2019-04-03T09:10:54.891Z,12.78
2019-04-03T09:16:00.355Z,40.40
2019-04-03T09:21:05.424Z,14.03
2019-04-03T09:26:10.082Z,13.18
2019-04-03T09:31:14.660Z,13.45
2019-04-03T09:36:19.265Z,13.00
2019-04-03T09:41:23.829Z,32.48
2019-04-03T09:46:30.478Z,13.45
2019-04-03T09:51:34.481Z,14.68
2019-04-03T09:56:54.481Z,14.30
2019-04-03T10:01:47.132Z,13.18
2019-04-03T10:06:51.394Z,21.60
2019-04-03T10:11:55.856Z,13.83
2019-04-03T10:17:00.314Z,13.05
2019-04-03T10:22:05.080Z,12.10
2019-04-03T10:27:11.183Z,13.50
2019-04-03T10:32:15.961Z,23.73
2019-04-03T10:37:20.548Z,12.47
2019-04-03T10:42:25.186Z,12.30
2019-04-03T10:47:40.390Z,11.10
2019-04-03T10:52:35.933Z,13.75
2019-04-03T10:57:40.666Z,10.95
2019-04-03T11:02:45.150Z,9.23
2019-04-03T11:07:49.587Z,9.68
2019-04-03T11:13:13.372Z,8.30
2019-04-03T11:18:20.484Z,7.25
2019-04-03T11:23:36.614Z,6.70
2019-04-03T11:28:30.707Z,6.58
2019-04-03T11:33:35.422Z,6.10
2019-04-03T11:38:40.221Z,6.37
2019-04-03T11:43:44.705Z,10.55
2019-04-03T11:48:49.305Z,6.28
2019-04-03T11:53:53.839Z,6.33
2019-04-03T11:58:58.491Z,13.53
2019-04-03T12:04:12.779Z,5.95
2019-04-03T12:09:17.296Z,6.33
2019-04-03T12:14:21.740Z,5.87
2019-04-03T12:19:28.259Z,5.33
2019-04-03T12:24:32.947Z,11.80
2019-04-03T12:29:37.562Z,5.45
2019-04-03T12:34:42.035Z,4.12
2019-04-03T12:39:46.537Z,4.12
2019-04-03T12:44:54.039Z,4.22
2019-04-03T12:49:57.331Z,3.42
2019-04-03T12:55:01.934Z,4.97
2019-04-03T13:00:13.098Z,3.10
2019-04-03T13:05:18.566Z,3.52
2019-04-03T13:10:23.359Z,3.55
2019-04-03T13:15:28.471Z,2.92
2019-04-03T13:20:36.038Z,2.90
2019-04-03T13:25:39.240Z,2.75
2019-04-03T13:30:44.855Z,3.00
2019-04-03T13:35:49.614Z,3.10
2019-04-03T13:40:54.207Z,3.00
2019-04-03T13:45:59.042Z,2.80
2019-04-03T13:51:03.618Z,3.13
2019-04-03T13:56:10.269Z,2.75
2019-04-03T14:01:14.800Z,2.43
2019-04-03T14:06:19.712Z,2.97
2019-04-03T14:11:24.359Z,2.70
2019-04-03T14:16:29.046Z,2.17
2019-04-03T14:21:35.735Z,2.27
2019-04-03T14:26:39.958Z,2.37
2019-04-03T14:31:47.959Z,2.27
2019-04-03T14:36:51.129Z,2.50
2019-04-03T14:41:56.151Z,2.63
2019-04-03T14:47:01.196Z,2.53
2019-04-03T14:52:05.759Z,2.08
2019-04-03T14:57:20.250Z,3.10
2019-04-03T15:02:16.938Z,2.90
2019-04-03T15:07:21.438Z,2.40
2019-04-03T15:12:26.390Z,2.40
2019-04-03T15:17:30.957Z,2.70
2019-04-03T15:22:35.795Z,2.50
2019-04-03T15:27:40.380Z,2.90
2019-04-03T15:32:44.913Z,2.43
2019-04-03T15:37:49.457Z,2.73
2019-04-03T15:42:54.718Z,2.20
2019-04-03T15:47:59.774Z,2.30
2019-04-03T15:53:04.635Z,2.37
2019-04-03T15:58:09.438Z,2.50
2019-04-03T16:03:14.976Z,2.67
2019-04-03T16:08:20.621Z,2.40
2019-04-03T16:13:25.693Z,2.80
2019-04-03T16:18:30.690Z,2.43
2019-04-03T16:23:37.281Z,2.37
2019-04-03T16:28:41.947Z,2.80
2019-04-03T16:33:46.659Z,2.17
2019-04-03T16:38:51.676Z,2.67
2019-04-03T16:43:56.199Z,2.50
2019-04-03T16:49:00.994Z,2.83
2019-04-03T16:54:06.447Z,2.47
2019-04-03T16:59:11.058Z,2.63
2019-04-03T17:04:25.371Z,2.40
2019-04-03T17:09:21.802Z,2.73
2019-04-03T17:14:26.244Z,2.70
2019-04-03T17:19:51.482Z,2.30
2019-04-03T17:24:56.529Z,2.40
2019-04-03T17:30:01.494Z,2.80
2019-04-03T17:35:08.743Z,2.43
2019-04-03T17:40:14.187Z,2.43
2019-04-03T17:45:18.729Z,2.10
2019-04-03T17:50:23.202Z,2.80
2019-04-03T17:55:27.656Z,2.33
2019-04-03T18:00:32.180Z,3.10
2019-04-03T18:05:36.639Z,2.73
2019-04-03T18:10:42.631Z,2.70
2019-04-03T18:15:47.420Z,2.60
2019-04-03T18:20:51.944Z,2.40
2019-04-03T18:25:57.825Z,2.70
2019-04-03T18:31:02.612Z,2.90
2019-04-03T18:36:07.077Z,2.33
2019-04-03T18:41:11.780Z,2.20
2019-04-03T18:46:31.123Z,2.60
2019-04-03T18:51:32.228Z,2.30
2019-04-03T18:56:36.780Z,2.83
2019-04-03T19:01:41.238Z,2.80
2019-04-03T19:06:45.862Z,2.97
2019-04-03T19:11:51.522Z,2.20
2019-04-03T19:16:57.080Z,2.40
2019-04-03T19:22:01.530Z,2.47
2019-04-03T19:27:06.156Z,2.50
2019-04-03T19:32:12.227Z,2.33
2019-04-03T19:37:16.850Z,2.23
2019-04-03T19:42:21.390Z,2.20
2019-04-03T19:47:25.907Z,2.60
2019-04-03T19:52:30.610Z,2.30
2019-04-03T19:57:35.152Z,2.60
2019-04-03T20:02:42.735Z,2.20
2019-04-03T20:07:45.800Z,2.67
2019-04-03T20:12:50.803Z,4.10
2019-04-03T20:17:55.467Z,5.83
2019-04-03T20:23:00.006Z,5.53
2019-04-03T20:28:04.585Z,6.37
2019-04-03T20:33:11.517Z,6.87
2019-04-03T20:38:15.547Z,7.00
2019-04-03T20:43:20.003Z,6.33
2019-04-03T20:48:28.079Z,6.57
2019-04-03T20:53:30.641Z,6.47
2019-04-03T20:58:35.394Z,5.90
2019-04-03T21:03:39.837Z,5.83
2019-04-03T21:08:44.279Z,5.33
2019-04-03T21:13:48.736Z,5.10
2019-04-03T21:18:53.190Z,5.50
2019-04-03T21:23:57.645Z,5.70
2019-04-03T21:29:02.075Z,5.40
2019-04-03T21:34:06.545Z,6.17
2019-04-03T21:39:12.858Z,5.57
2019-04-03T21:44:17.139Z,5.93
2019-04-03T21:49:21.587Z,5.60
2019-04-03T21:54:26.850Z,6.43
2019-04-03T21:59:31.741Z,6.87
2019-04-03T22:04:36.185Z,5.97
2019-04-03T22:09:40.686Z,6.30
2019-04-03T22:14:45.133Z,5.60
2019-04-03T22:19:49.578Z,5.90
2019-04-03T22:24:54.016Z,5.20
2019-04-03T22:29:58.452Z,5.03
2019-04-03T22:35:04.525Z,5.03
2019-04-03T22:40:10.615Z,5.37
2019-04-03T22:45:15.338Z,4.90
2019-04-03T22:50:19.798Z,19.50
2019-04-03T22:55:24.247Z,5.57
2019-04-03T23:00:28.691Z,4.83
2019-04-03T23:05:33.482Z,5.00
2019-04-03T23:10:37.938Z,5.70
2019-04-03T23:15:43.486Z,5.60
2019-04-03T23:20:47.941Z,5.63
2019-04-03T23:25:52.417Z,5.93
2019-04-03T23:30:56.854Z,6.10
2019-04-03T23:36:01.305Z,5.80
2019-04-03T23:41:06.124Z,5.83
2019-04-03T23:46:12.808Z,5.60
2019-04-03T23:51:23.028Z,5.60
2019-04-03T23:56:23.563Z,5.13
